createdAt,value
2022-10-18T00:00:04.632Z,16.38
2022-10-18T00:02:31.009Z,22.98
2022-10-18T00:04:57.306Z,17.95
2022-10-18T00:07:23.605Z,14.80
2022-10-18T00:09:49.905Z,20.30
2022-10-18T00:12:16.249Z,18.17
2022-10-18T00:14:42.609Z,22.17
2022-10-18T00:17:08.885Z,22.55
2022-10-18T00:19:35.152Z,18.60
2022-10-18T00:22:01.418Z,13.80
2022-10-18T00:24:27.759Z,18.48
2022-10-18T00:26:54.049Z,15.77
2022-10-18T00:29:20.327Z,16.00
2022-10-18T00:31:46.598Z,24.02
2022-10-18T00:34:14.276Z,19.02
2022-10-18T00:36:41.154Z,17.83
2022-10-18T00:39:08.362Z,22.23
2022-10-18T00:41:36.262Z,19.30
2022-10-18T00:44:02.561Z,20.02
2022-10-18T00:46:33.151Z,16.80
2022-10-18T00:49:01.298Z,18.33
2022-10-18T00:51:30.796Z,21.63
2022-10-18T00:53:57.168Z,20.50
2022-10-18T00:56:23.556Z,15.30
2022-10-18T00:58:50.865Z,18.70
2022-10-18T01:01:17.294Z,15.48
2022-10-18T01:03:43.654Z,17.90
2022-10-18T01:06:09.968Z,20.88
2022-10-18T01:08:44.971Z,16.35
2022-10-18T01:11:43.991Z,15.98
2022-10-18T01:14:33.321Z,16.65
2022-10-18T01:16:59.609Z,15.30
2022-10-18T01:19:25.861Z,17.15
2022-10-18T01:22:02.041Z,14.82
2022-10-18T01:24:54.849Z,12.40
2022-10-18T01:27:30.553Z,22.60
2022-10-18T01:30:16.108Z,15.35
2022-10-18T01:32:50.357Z,17.55
2022-10-18T01:35:19.367Z,19.65
2022-10-18T01:37:47.220Z,15.82
2022-10-18T01:40:15.257Z,19.85
2022-10-18T01:42:43.365Z,16.48
2022-10-18T01:45:10.262Z,20.00
2022-10-18T01:47:36.757Z,18.38
2022-10-18T01:50:05.512Z,16.02
2022-10-18T01:52:31.974Z,20.00
2022-10-18T01:54:59.560Z,17.63
2022-10-18T01:57:25.805Z,16.33
2022-10-18T01:59:52.464Z,15.80
2022-10-18T02:02:51.219Z,15.02
2022-10-18T02:05:20.488Z,16.73
2022-10-18T02:08:12.024Z,18.02
2022-10-18T02:10:47.973Z,16.90
2022-10-18T02:13:20.515Z,20.35
2022-10-18T02:15:48.353Z,24.45
2022-10-18T02:18:18.269Z,17.77
2022-10-18T02:20:45.500Z,15.30
2022-10-18T02:23:13.473Z,16.48
2022-10-18T02:25:39.799Z,19.05
2022-10-18T02:28:06.495Z,18.27
2022-10-18T02:30:35.757Z,21.60
2022-10-18T02:33:08.988Z,14.32
2022-10-18T02:35:37.699Z,18.97
2022-10-18T02:38:05.268Z,19.92
2022-10-18T02:40:31.614Z,19.08
2022-10-18T02:42:58.604Z,16.40
2022-10-18T02:45:25.395Z,17.48
2022-10-18T02:47:51.797Z,14.32
2022-10-18T02:50:18.268Z,19.35
2022-10-18T02:52:44.670Z,22.73
2022-10-18T02:55:10.970Z,18.48
2022-10-18T02:57:37.285Z,21.70
2022-10-18T03:00:04.317Z,19.45
2022-10-18T03:02:30.717Z,19.45
2022-10-18T03:04:56.960Z,12.35
2022-10-18T03:07:23.480Z,7.40
2022-10-18T03:09:49.744Z,8.32
2022-10-18T03:12:16.243Z,3.25
2022-10-18T03:14:42.532Z,4.88
2022-10-18T03:17:08.815Z,2.83
2022-10-18T03:19:35.100Z,2.53
2022-10-18T03:22:01.382Z,2.30
2022-10-18T03:24:27.652Z,4.05
2022-10-18T03:26:53.908Z,3.30
2022-10-18T03:29:20.220Z,1.40
2022-10-18T03:31:46.553Z,5.10
2022-10-18T03:34:12.953Z,5.20
2022-10-18T03:36:41.156Z,3.28
2022-10-18T03:39:07.469Z,4.53
2022-10-18T03:41:33.781Z,5.35
2022-10-18T03:44:00.045Z,4.95
2022-10-18T03:46:26.348Z,1.13
2022-10-18T03:48:52.645Z,2.15
2022-10-18T03:51:18.931Z,1.85
2022-10-18T03:53:45.224Z,1.40
2022-10-18T03:56:11.509Z,2.75
2022-10-18T03:58:37.851Z,2.05
2022-10-18T04:01:04.217Z,0.80
2022-10-18T04:03:30.493Z,2.15
2022-10-18T04:05:57.066Z,4.13
2022-10-18T04:08:23.328Z,1.35
2022-10-18T04:10:49.612Z,0.65
2022-10-18T04:13:15.891Z,1.33
2022-10-18T04:15:42.943Z,1.35
2022-10-18T04:18:09.288Z,3.40
2022-10-18T04:20:35.587Z,4.78
2022-10-18T04:23:01.900Z,2.92
2022-10-18T04:25:29.215Z,2.45
2022-10-18T04:27:55.629Z,3.33
2022-10-18T04:30:21.886Z,6.20
2022-10-18T04:32:48.159Z,2.85
2022-10-18T04:35:14.444Z,3.97
2022-10-18T04:37:40.793Z,5.05
2022-10-18T04:40:07.470Z,3.63
2022-10-18T04:42:33.754Z,2.47
2022-10-18T04:45:00.049Z,4.68
2022-10-18T04:47:26.315Z,7.30
2022-10-18T04:49:52.601Z,1.95
2022-10-18T04:52:19.104Z,1.92
2022-10-18T04:54:45.373Z,2.92
2022-10-18T04:57:11.654Z,5.15
2022-10-18T04:59:37.911Z,6.63
2022-10-18T05:04:35.771Z,4.05
2022-10-18T05:07:02.847Z,5.28
2022-10-18T05:09:29.185Z,5.82
2022-10-18T05:11:55.467Z,4.32
2022-10-18T05:14:21.772Z,3.83
2022-10-18T05:16:48.049Z,4.43
2022-10-18T05:19:14.365Z,5.63
2022-10-18T05:21:40.787Z,4.72
2022-10-18T05:24:07.136Z,7.85
2022-10-18T05:26:33.404Z,7.40
2022-10-18T05:28:59.724Z,2.88
2022-10-18T05:31:26.141Z,5.03
2022-10-18T05:33:52.417Z,3.60
2022-10-18T05:36:18.681Z,5.50
2022-10-18T05:38:45.445Z,7.68
2022-10-18T05:41:12.297Z,9.38
2022-10-18T05:43:39.554Z,8.05
2022-10-18T05:46:11.805Z,2.90
2022-10-18T05:48:41.357Z,5.10
2022-10-18T05:51:07.640Z,7.88
2022-10-18T05:53:38.021Z,5.63
2022-10-18T05:56:05.233Z,6.65
2022-10-18T05:58:31.570Z,7.75
2022-10-18T06:00:58.989Z,6.22
2022-10-18T06:03:25.287Z,4.45
2022-10-18T06:05:51.568Z,4.50
2022-10-18T06:08:17.837Z,5.03
2022-10-18T06:10:44.180Z,4.25
2022-10-18T06:13:10.456Z,10.38
2022-10-18T06:15:36.726Z,3.40
2022-10-18T06:18:03.111Z,5.03
2022-10-18T06:20:29.385Z,4.38
2022-10-18T06:22:55.702Z,2.15
2022-10-18T06:25:21.987Z,3.85
2022-10-18T06:27:48.285Z,4.20
2022-10-18T06:30:15.531Z,3.75
2022-10-18T06:32:41.789Z,3.78
2022-10-18T06:35:08.319Z,5.57
2022-10-18T06:37:35.564Z,5.20
2022-10-18T06:40:02.211Z,7.75
2022-10-18T06:42:28.703Z,8.98
2022-10-18T06:44:54.972Z,7.95
2022-10-18T06:47:21.262Z,10.48
2022-10-18T06:49:47.545Z,7.03
2022-10-18T06:52:13.844Z,7.03
2022-10-18T06:54:40.108Z,6.43
2022-10-18T06:57:06.419Z,5.80
2022-10-18T06:59:32.689Z,5.30
2022-10-18T07:01:59.039Z,6.72
2022-10-18T07:04:27.898Z,4.43
2022-10-18T07:06:54.220Z,5.93
2022-10-18T07:09:20.519Z,2.95
2022-10-18T07:11:46.790Z,2.83
2022-10-18T07:14:16.313Z,2.60
2022-10-18T07:16:42.840Z,3.83
2022-10-18T07:19:09.163Z,5.40
2022-10-18T07:21:35.432Z,5.68
2022-10-18T07:24:01.691Z,4.60
2022-10-18T07:26:31.978Z,9.95
2022-10-18T07:29:04.565Z,9.13
2022-10-18T07:31:31.054Z,11.02
2022-10-18T07:33:57.470Z,5.22
2022-10-18T07:36:24.519Z,4.25
2022-10-18T07:38:54.083Z,5.13
2022-10-18T07:41:20.626Z,3.40
2022-10-18T07:43:47.929Z,2.60
2022-10-18T07:46:14.701Z,2.22
2022-10-18T07:48:41.109Z,2.55
2022-10-18T07:51:07.522Z,1.83
2022-10-18T07:53:34.532Z,1.13
2022-10-18T07:56:04.554Z,1.30
2022-10-18T07:58:34.301Z,1.25
2022-10-18T08:01:03.841Z,1.85
2022-10-18T08:03:30.125Z,3.25
2022-10-18T08:05:56.594Z,2.40
2022-10-18T08:08:23.754Z,4.40
2022-10-18T08:10:50.420Z,0.77
2022-10-18T08:13:17.045Z,2.25
2022-10-18T08:15:43.692Z,3.35
2022-10-18T08:18:10.286Z,1.98
2022-10-18T08:20:36.994Z,2.70
2022-10-18T08:23:04.161Z,1.20
2022-10-18T08:25:30.815Z,1.52
2022-10-18T08:27:57.404Z,1.67
2022-10-18T08:30:23.764Z,0.93
2022-10-18T08:32:50.073Z,2.47
2022-10-18T08:35:16.473Z,2.35
2022-10-18T08:37:43.508Z,2.30
2022-10-18T08:40:10.793Z,4.93
2022-10-18T08:42:46.129Z,1.60
2022-10-18T08:45:29.751Z,1.65
2022-10-18T08:47:59.091Z,2.58
2022-10-18T08:50:35.295Z,0.80
2022-10-18T08:53:05.692Z,6.88
2022-10-18T08:55:38.883Z,2.10
2022-10-18T08:58:17.056Z,1.50
2022-10-18T09:00:47.616Z,0.60
2022-10-18T09:03:22.031Z,3.63
2022-10-18T09:06:02.791Z,2.17
2022-10-18T09:08:29.073Z,1.08
2022-10-18T09:11:01.430Z,2.67
2022-10-18T09:13:46.616Z,2.15
2022-10-18T09:16:19.234Z,0.82
2022-10-18T09:18:45.556Z,2.53
2022-10-18T09:21:11.813Z,1.00
2022-10-18T09:23:46.979Z,1.92
2022-10-18T09:26:16.354Z,1.58
2022-10-18T09:28:55.068Z,0.70
2022-10-18T09:31:26.098Z,1.75
2022-10-18T09:33:52.337Z,1.70
2022-10-18T09:36:33.543Z,1.67
2022-10-18T09:39:02.226Z,1.75
2022-10-18T09:41:30.161Z,0.80
2022-10-18T09:44:02.350Z,1.10
2022-10-18T09:46:32.243Z,1.45
2022-10-18T09:49:04.204Z,1.30
2022-10-18T09:51:35.256Z,2.55
2022-10-18T09:54:10.649Z,4.47
2022-10-18T09:56:42.044Z,3.33
2022-10-18T09:59:22.640Z,2.63
2022-10-18T10:01:48.903Z,0.93
2022-10-18T10:04:15.342Z,5.38
2022-10-18T10:06:48.690Z,2.38
2022-10-18T10:09:15.775Z,1.60
2022-10-18T10:11:46.489Z,3.05
2022-10-18T10:14:17.690Z,1.08
2022-10-18T10:16:51.798Z,1.05
2022-10-18T10:21:44.550Z,2.88
2022-10-18T10:24:19.288Z,7.25
2022-10-18T10:26:47.001Z,3.38
2022-10-18T10:29:44.053Z,1.60
2022-10-18T10:32:12.665Z,1.77
2022-10-18T10:34:42.344Z,1.52
2022-10-18T10:37:23.211Z,1.60
2022-10-18T10:40:17.749Z,3.85
2022-10-18T10:43:04.323Z,2.80
2022-10-18T10:45:55.098Z,1.60
2022-10-18T10:48:21.953Z,0.95
2022-10-18T10:50:56.307Z,4.68
2022-10-18T10:53:30.749Z,2.45
2022-10-18T10:55:58.135Z,1.23
2022-10-18T10:58:26.155Z,2.15
2022-10-18T11:00:52.461Z,1.42
2022-10-18T11:03:29.396Z,0.80
2022-10-18T11:05:58.003Z,3.17
2022-10-18T11:08:26.305Z,1.33
2022-10-18T11:10:58.689Z,2.47
2022-10-18T11:13:31.957Z,5.50
2022-10-18T11:16:06.861Z,1.25
2022-10-18T11:18:34.114Z,2.03
2022-10-18T11:21:05.509Z,2.25
2022-10-18T11:23:32.366Z,1.00
2022-10-18T11:26:11.038Z,3.40
2022-10-18T11:28:56.276Z,1.15
2022-10-18T11:31:25.653Z,1.80
2022-10-18T11:34:08.188Z,2.63
2022-10-18T11:39:07.246Z,3.80
2022-10-18T11:41:46.660Z,4.32
2022-10-18T11:44:17.854Z,1.63
2022-10-18T11:46:44.129Z,1.20
2022-10-18T11:49:13.090Z,1.05
2022-10-18T11:52:03.642Z,1.17
2022-10-18T11:54:51.963Z,2.28
2022-10-18T11:57:25.901Z,2.90
2022-10-18T12:02:37.449Z,1.08
2022-10-18T12:05:23.139Z,2.15
2022-10-18T12:07:57.734Z,2.38
2022-10-18T12:10:37.799Z,3.72
2022-10-18T12:13:16.394Z,2.58
2022-10-18T12:15:43.552Z,1.27
2022-10-18T12:18:16.258Z,4.32
2022-10-18T12:20:44.994Z,2.20
2022-10-18T12:23:16.592Z,2.75
2022-10-18T12:25:45.415Z,4.10
2022-10-18T12:28:30.570Z,2.88
2022-10-18T12:31:15.763Z,1.48
2022-10-18T12:33:45.068Z,1.45
2022-10-18T12:36:20.812Z,1.58
2022-10-18T12:38:49.877Z,1.95
2022-10-18T12:41:19.617Z,2.97
2022-10-18T12:43:51.400Z,2.65
2022-10-18T12:46:17.995Z,2.92
2022-10-18T12:48:48.235Z,1.45
2022-10-18T12:51:17.560Z,3.05
2022-10-18T12:53:48.687Z,2.58
2022-10-18T12:56:34.438Z,3.72
2022-10-18T12:59:16.565Z,2.45
2022-10-18T13:01:52.924Z,2.67
2022-10-18T13:04:29.067Z,4.97
2022-10-18T13:07:04.843Z,3.85
2022-10-18T13:09:43.240Z,4.05
2022-10-18T13:12:09.569Z,1.88
2022-10-18T13:15:05.795Z,1.70
2022-10-18T13:17:43.240Z,2.83
2022-10-18T13:20:27.281Z,2.55
2022-10-18T13:26:04.217Z,1.02
2022-10-18T13:28:33.639Z,3.17
2022-10-18T13:31:09.264Z,4.95
2022-10-18T13:33:38.558Z,4.07
2022-10-18T13:36:22.488Z,3.10
2022-10-18T13:38:57.120Z,1.85
2022-10-18T13:44:02.443Z,3.05
2022-10-18T13:46:34.829Z,1.75
2022-10-18T13:49:20.099Z,4.53
2022-10-18T13:51:46.368Z,2.35
2022-10-18T13:54:12.694Z,2.60
2022-10-18T13:56:46.079Z,4.07
2022-10-18T13:59:21.735Z,2.83
2022-10-18T14:02:00.398Z,3.20
2022-10-18T14:04:32.830Z,2.92
2022-10-18T14:07:02.481Z,8.68
2022-10-18T14:09:43.513Z,4.28
2022-10-18T14:12:14.019Z,5.47
2022-10-18T14:14:43.270Z,3.65
2022-10-18T14:17:48.281Z,1.30
2022-10-18T14:22:59.801Z,2.97
2022-10-18T14:25:28.987Z,4.45
2022-10-18T14:28:13.496Z,2.42
2022-10-18T14:30:55.412Z,2.63
2022-10-18T14:33:26.397Z,3.92
2022-10-18T14:35:59.692Z,3.60
2022-10-18T14:38:25.983Z,2.33
2022-10-18T14:41:03.987Z,2.40
2022-10-18T14:43:30.275Z,5.85
2022-10-18T14:46:07.775Z,6.35
2022-10-18T14:48:34.100Z,2.67
2022-10-18T14:51:09.386Z,4.40
2022-10-18T14:53:38.297Z,4.03
2022-10-18T14:56:05.733Z,1.60
2022-10-18T14:58:32.410Z,2.85
2022-10-18T15:00:59.138Z,24.67
2022-10-18T15:03:26.122Z,23.38
2022-10-18T15:05:54.066Z,10.52
2022-10-18T15:08:20.912Z,6.13
2022-10-18T15:10:47.835Z,1.88
2022-10-18T15:13:15.396Z,3.25
2022-10-18T15:15:43.400Z,3.92
2022-10-18T15:18:23.381Z,2.58
2022-10-18T15:21:08.480Z,5.53
2022-10-18T15:23:34.906Z,4.22
2022-10-18T15:26:05.435Z,5.15
2022-10-18T15:28:49.638Z,4.25
2022-10-18T15:31:27.569Z,5.25
2022-10-18T15:33:55.173Z,3.67
2022-10-18T15:36:28.034Z,4.80
2022-10-18T15:39:03.479Z,5.30
2022-10-18T15:41:40.837Z,5.50
2022-10-18T15:44:21.419Z,2.70
2022-10-18T15:46:48.120Z,2.95
2022-10-18T15:49:23.710Z,5.05
2022-10-18T15:51:51.211Z,6.20
2022-10-18T15:54:18.343Z,2.95
2022-10-18T15:56:45.221Z,5.43
2022-10-18T15:59:38.068Z,4.50
2022-10-18T16:02:04.461Z,2.50
2022-10-18T16:04:33.703Z,7.03
2022-10-18T16:07:00.145Z,8.35
2022-10-18T16:09:27.282Z,4.93
2022-10-18T16:11:57.074Z,5.20
2022-10-18T16:14:24.115Z,5.18
2022-10-18T16:16:55.582Z,5.03
2022-10-18T16:19:22.658Z,2.47
2022-10-18T16:21:49.445Z,6.25
2022-10-18T16:24:16.171Z,7.47
2022-10-18T16:26:42.773Z,3.13
2022-10-18T16:29:13.501Z,5.32
2022-10-18T16:31:39.918Z,7.28
2022-10-18T16:34:06.334Z,5.35
2022-10-18T16:36:33.342Z,8.13
2022-10-18T16:39:02.209Z,6.57
2022-10-18T16:41:28.574Z,4.70
2022-10-18T16:43:54.870Z,8.27
2022-10-18T16:46:27.332Z,6.55
2022-10-18T16:48:54.333Z,3.45
2022-10-18T16:51:20.649Z,3.58
2022-10-18T16:53:46.951Z,6.00
2022-10-18T16:56:17.581Z,8.73
2022-10-18T16:58:44.676Z,8.05
2022-10-18T17:01:12.407Z,7.45
2022-10-18T17:03:38.738Z,8.07
2022-10-18T17:06:05.086Z,8.82
2022-10-18T17:08:31.410Z,8.77
2022-10-18T17:10:58.705Z,8.40
2022-10-18T17:13:25.712Z,7.43
2022-10-18T17:15:53.313Z,9.80
2022-10-18T17:18:21.791Z,7.20
2022-10-18T17:20:48.438Z,5.90
2022-10-18T17:23:15.217Z,9.43
2022-10-18T17:25:57.682Z,7.50
2022-10-18T17:28:34.031Z,11.05
2022-10-18T17:31:01.400Z,8.82
2022-10-18T17:33:27.716Z,14.35
2022-10-18T17:35:55.087Z,13.48
2022-10-18T17:38:21.431Z,10.27
2022-10-18T17:40:47.882Z,12.60
2022-10-18T17:43:14.338Z,7.85
2022-10-18T17:45:53.433Z,9.48
2022-10-18T17:48:19.689Z,10.70
2022-10-18T17:50:45.974Z,6.75
2022-10-18T17:53:12.987Z,15.93
2022-10-18T17:55:39.785Z,9.98
2022-10-18T17:58:07.196Z,16.48
2022-10-18T18:00:33.620Z,16.23
2022-10-18T18:03:00.271Z,14.40
2022-10-18T18:05:30.117Z,16.23
2022-10-18T18:08:01.290Z,9.45
2022-10-18T18:10:31.701Z,12.57
2022-10-18T18:12:58.116Z,14.02
2022-10-18T18:15:24.418Z,10.43
2022-10-18T18:17:57.132Z,14.30
2022-10-18T18:20:24.320Z,10.53
2022-10-18T18:22:51.031Z,9.63
2022-10-18T18:25:17.434Z,17.30
2022-10-18T18:27:43.724Z,10.15
2022-10-18T18:30:10.197Z,12.65
2022-10-18T18:32:39.296Z,14.93
2022-10-18T18:35:05.792Z,12.10
2022-10-18T18:37:32.157Z,10.38
2022-10-18T18:39:58.428Z,13.02
2022-10-18T18:42:24.785Z,17.52
2022-10-18T18:44:51.095Z,27.45
2022-10-18T18:47:21.119Z,16.08
2022-10-18T18:49:47.389Z,16.02
2022-10-18T18:52:13.657Z,14.32
2022-10-18T18:54:39.991Z,14.85
2022-10-18T18:57:06.413Z,14.45
2022-10-18T18:59:32.744Z,15.90
2022-10-18T19:01:59.164Z,17.88
2022-10-18T19:04:25.451Z,18.65
2022-10-18T19:06:51.749Z,16.80
2022-10-18T19:09:26.272Z,21.83
2022-10-18T19:11:53.610Z,16.88
2022-10-18T19:16:53.206Z,16.40
2022-10-18T19:19:20.643Z,17.95
2022-10-18T19:21:48.984Z,22.13
2022-10-18T19:24:15.656Z,22.40
2022-10-18T19:26:44.869Z,21.15
2022-10-18T19:29:11.252Z,20.55
2022-10-18T19:31:38.409Z,23.08
2022-10-18T19:34:05.486Z,21.30
2022-10-18T19:36:32.008Z,21.27
2022-10-18T19:38:58.352Z,20.60
2022-10-18T19:43:52.221Z,24.55
2022-10-18T19:46:18.677Z,28.50
2022-10-18T19:48:44.970Z,26.08
2022-10-18T19:51:17.302Z,37.95
2022-10-18T19:53:47.190Z,34.88
2022-10-18T19:56:16.802Z,33.55
2022-10-18T19:58:43.101Z,31.80
2022-10-18T20:01:09.447Z,33.05
2022-10-18T20:03:35.733Z,29.30
2022-10-18T20:06:02.609Z,32.92
2022-10-18T20:08:30.277Z,33.08
2022-10-18T20:10:59.882Z,34.40
2022-10-18T20:13:26.234Z,33.25
2022-10-18T20:15:52.632Z,26.83
2022-10-18T20:18:19.713Z,25.75
2022-10-18T20:20:48.191Z,29.45
2022-10-18T20:23:15.369Z,29.13
2022-10-18T20:25:41.739Z,30.30
2022-10-18T20:28:08.145Z,25.52
2022-10-18T20:30:34.473Z,27.83
2022-10-18T20:33:00.782Z,30.17
2022-10-18T20:35:27.145Z,35.20
2022-10-18T20:37:53.422Z,27.83
2022-10-18T20:40:19.709Z,30.58
2022-10-18T20:42:46.016Z,32.17
2022-10-18T20:45:12.381Z,29.65
2022-10-18T20:47:38.769Z,30.15
2022-10-18T20:50:05.257Z,29.23
2022-10-18T20:52:31.517Z,31.52
2022-10-18T20:54:57.797Z,35.70
2022-10-18T20:57:24.074Z,30.13
2022-10-18T20:59:50.441Z,34.17
2022-10-18T21:02:16.706Z,25.95
2022-10-18T21:04:42.991Z,24.92
2022-10-18T21:07:09.250Z,32.17
2022-10-18T21:09:35.580Z,29.85
2022-10-18T21:12:01.911Z,28.48
2022-10-18T21:14:28.315Z,33.92
2022-10-18T21:16:54.860Z,34.42
2022-10-18T21:19:25.648Z,40.15
2022-10-18T21:21:53.683Z,40.55
2022-10-18T21:24:20.528Z,38.58
2022-10-18T21:26:47.771Z,45.72
2022-10-18T21:29:19.312Z,49.35
2022-10-18T21:34:15.679Z,49.67
2022-10-18T21:36:43.078Z,52.00
2022-10-18T21:39:12.443Z,48.45
2022-10-18T21:41:39.577Z,50.10
2022-10-18T21:44:09.849Z,48.15
2022-10-18T21:46:37.875Z,45.85
2022-10-18T21:49:05.013Z,51.55
2022-10-18T21:51:31.323Z,61.10
2022-10-18T21:53:58.214Z,59.13
2022-10-18T21:56:26.906Z,62.78
2022-10-18T21:58:53.240Z,47.60
2022-10-18T22:01:20.861Z,48.05
2022-10-18T22:03:48.261Z,55.25
2022-10-18T22:06:15.203Z,53.75
2022-10-18T22:08:42.499Z,49.83
2022-10-18T22:11:08.954Z,63.08
2022-10-18T22:13:35.250Z,44.67
2022-10-18T22:16:02.629Z,43.38
2022-10-18T22:18:29.449Z,47.13
2022-10-18T22:20:56.392Z,46.47
2022-10-18T22:23:22.845Z,47.63
2022-10-18T22:25:49.165Z,51.38
2022-10-18T22:28:15.512Z,59.90
2022-10-18T22:30:41.866Z,62.65
2022-10-18T22:33:08.171Z,77.13
2022-10-18T22:35:34.427Z,59.83
2022-10-18T22:38:00.751Z,55.35
2022-10-18T22:40:27.035Z,69.45
2022-10-18T22:42:53.298Z,70.88
2022-10-18T22:45:19.665Z,58.97
2022-10-18T22:47:45.934Z,61.53
2022-10-18T22:50:12.276Z,64.28
2022-10-18T22:52:38.570Z,53.55
2022-10-18T22:55:05.076Z,59.78
2022-10-18T22:57:31.385Z,60.38
2022-10-18T22:59:57.663Z,54.30
2022-10-18T23:02:23.941Z,75.63
2022-10-18T23:04:50.213Z,68.68
2022-10-18T23:07:16.497Z,57.10
2022-10-18T23:09:42.757Z,55.50
2022-10-18T23:12:09.045Z,61.95
2022-10-18T23:14:35.310Z,103.13
2022-10-18T23:17:01.620Z,82.00
2022-10-18T23:19:27.882Z,75.47
2022-10-18T23:21:54.152Z,96.35
2022-10-18T23:24:20.421Z,193.88
2022-10-18T23:26:46.707Z,145.07
2022-10-18T23:29:13.696Z,173.55
2022-10-18T23:31:40.027Z,85.15
2022-10-18T23:34:06.354Z,142.70
2022-10-18T23:36:33.226Z,162.18
2022-10-18T23:38:59.693Z,144.23
2022-10-18T23:41:26.337Z,280.98
2022-10-18T23:43:52.917Z,152.45
2022-10-18T23:46:19.286Z,122.80
2022-10-18T23:48:46.022Z,276.42
2022-10-18T23:51:12.694Z,105.68
2022-10-18T23:53:38.988Z,177.77
2022-10-18T23:56:06.487Z,303.33
2022-10-18T23:58:33.672Z,159.73
